sensor_id;sensor_type;location;lat;lon;timestamp;temperature;humidity
9975;DHT22;5028;50.974;4.968;2022-11-20T00:01:34;3.30;99.90
9975;DHT22;5028;50.974;4.968;2022-11-20T00:04:03;3.30;99.90
9975;DHT22;5028;50.974;4.968;2022-11-20T00:06:39;3.30;99.90
9975;DHT22;5028;50.974;4.968;2022-11-20T00:09:10;3.40;99.90
9975;DHT22;5028;50.974;4.968;2022-11-20T00:11:45;3.40;99.90
9975;DHT22;5028;50.974;4.968;2022-11-20T00:14:13;3.50;99.90
9975;DHT22;5028;50.974;4.968;2022-11-20T00:16:47;3.50;99.90
9975;DHT22;5028;50.974;4.968;2022-11-20T00:19:17;3.40;99.90
9975;DHT22;5028;50.974;4.968;2022-11-20T00:21:51;3.40;99.90
9975;DHT22;5028;50.974;4.968;2022-11-20T00:24:22;3.40;99.90
9975;DHT22;5028;50.974;4.968;2022-11-20T00:26:57;3.30;99.90
9975;DHT22;5028;50.974;4.968;2022-11-20T00:29:25;3.30;99.90
9975;DHT22;5028;50.974;4.968;2022-11-20T00:32:01;3.30;99.90
9975;DHT22;5028;50.974;4.968;2022-11-20T00:34:30;3.20;99.90
9975;DHT22;5028;50.974;4.968;2022-11-20T00:37:04;3.20;99.90
9975;DHT22;5028;50.974;4.968;2022-11-20T00:39:33;3.30;99.90
9975;DHT22;5028;50.974;4.968;2022-11-20T00:42:08;3.30;99.90
9975;DHT22;5028;50.974;4.968;2022-11-20T00:44:36;3.40;99.90
9975;DHT22;5028;50.974;4.968;2022-11-20T00:47:11;3.40;99.90
9975;DHT22;5028;50.974;4.968;2022-11-20T00:49:40;3.40;99.90
9975;DHT22;5028;50.974;4.968;2022-11-20T00:52:15;3.30;99.90
9975;DHT22;5028;50.974;4.968;2022-11-20T00:54:44;3.30;99.90
9975;DHT22;5028;50.974;4.968;2022-11-20T00:57:26;3.30;99.90
9975;DHT22;5028;50.974;4.968;2022-11-20T01:00:09;3.30;99.90
9975;DHT22;5028;50.974;4.968;2022-11-20T01:02:44;3.30;99.90
9975;DHT22;5028;50.974;4.968;2022-11-20T01:05:14;3.20;99.90
9975;DHT22;5028;50.974;4.968;2022-11-20T01:07:49;3.20;99.90
9975;DHT22;5028;50.974;4.968;2022-11-20T01:10:17;3.30;99.90
9975;DHT22;5028;50.974;4.968;2022-11-20T01:12:52;3.30;99.90
9975;DHT22;5028;50.974;4.968;2022-11-20T01:15:34;3.20;99.90
9975;DHT22;5028;50.974;4.968;2022-11-20T01:18:10;3.30;99.90
9975;DHT22;5028;50.974;4.968;2022-11-20T01:20:39;3.30;99.90
9975;DHT22;5028;50.974;4.968;2022-11-20T01:23:15;3.30;99.90
9975;DHT22;5028;50.974;4.968;2022-11-20T01:25:43;3.20;99.90
9975;DHT22;5028;50.974;4.968;2022-11-20T01:28:18;3.20;99.90
9975;DHT22;5028;50.974;4.968;2022-11-20T01:30:46;3.10;99.90
9975;DHT22;5028;50.974;4.968;2022-11-20T01:33:21;3.00;99.90
9975;DHT22;5028;50.974;4.968;2022-11-20T01:35:51;3.10;99.90
9975;DHT22;5028;50.974;4.968;2022-11-20T01:38:27;3.10;99.90
9975;DHT22;5028;50.974;4.968;2022-11-20T01:40:55;3.10;99.90
9975;DHT22;5028;50.974;4.968;2022-11-20T01:43:30;3.10;99.90
9975;DHT22;5028;50.974;4.968;2022-11-20T01:46:03;3.20;99.90
9975;DHT22;5028;50.974;4.968;2022-11-20T01:48:43;3.20;99.90
9975;DHT22;5028;50.974;4.968;2022-11-20T01:51:19;3.10;99.90
9975;DHT22;5028;50.974;4.968;2022-11-20T01:53:56;3.10;99.90
9975;DHT22;5028;50.974;4.968;2022-11-20T01:56:26;3.10;99.90
9975;DHT22;5028;50.974;4.968;2022-11-20T01:59:10;3.10;99.90
9975;DHT22;5028;50.974;4.968;2022-11-20T02:01:40;3.20;99.90
9975;DHT22;5028;50.974;4.968;2022-11-20T02:04:16;3.10;99.90
9975;DHT22;5028;50.974;4.968;2022-11-20T02:06:49;3.10;99.90
9975;DHT22;5028;50.974;4.968;2022-11-20T02:09:26;3.10;99.90
9975;DHT22;5028;50.974;4.968;2022-11-20T02:11:55;3.10;99.90
9975;DHT22;5028;50.974;4.968;2022-11-20T02:14:31;3.10;99.90
9975;DHT22;5028;50.974;4.968;2022-11-20T02:16:58;3.10;99.90
9975;DHT22;5028;50.974;4.968;2022-11-20T02:19:33;3.20;99.90
9975;DHT22;5028;50.974;4.968;2022-11-20T02:22:07;3.20;99.90
9975;DHT22;5028;50.974;4.968;2022-11-20T02:24:47;3.20;99.90
9975;DHT22;5028;50.974;4.968;2022-11-20T02:27:17;3.20;99.90
9975;DHT22;5028;50.974;4.968;2022-11-20T02:29:53;3.20;99.90
9975;DHT22;5028;50.974;4.968;2022-11-20T02:32:25;3.30;99.90
9975;DHT22;5028;50.974;4.968;2022-11-20T02:35:06;3.30;99.90
9975;DHT22;5028;50.974;4.968;2022-11-20T02:37:37;3.30;99.90
9975;DHT22;5028;50.974;4.968;2022-11-20T02:40:16;3.30;99.90
9975;DHT22;5028;50.974;4.968;2022-11-20T02:42:44;3.30;99.90
9975;DHT22;5028;50.974;4.968;2022-11-20T02:45:19;3.40;99.90
9975;DHT22;5028;50.974;4.968;2022-11-20T02:47:47;3.40;99.90
9975;DHT22;5028;50.974;4.968;2022-11-20T02:50:22;3.40;99.90
9975;DHT22;5028;50.974;4.968;2022-11-20T02:52:50;3.40;99.90
9975;DHT22;5028;50.974;4.968;2022-11-20T02:55:27;3.50;99.90
9975;DHT22;5028;50.974;4.968;2022-11-20T02:57:55;3.50;99.90
9975;DHT22;5028;50.974;4.968;2022-11-20T03:00:43;3.50;99.90
9975;DHT22;5028;50.974;4.968;2022-11-20T03:03:12;3.50;99.90
9975;DHT22;5028;50.974;4.968;2022-11-20T03:05:47;3.40;99.90
9975;DHT22;5028;50.974;4.968;2022-11-20T03:08:15;3.40;99.90
9975;DHT22;5028;50.974;4.968;2022-11-20T03:10:51;3.30;99.90
9975;DHT22;5028;50.974;4.968;2022-11-20T03:13:20;3.30;99.90
9975;DHT22;5028;50.974;4.968;2022-11-20T03:15:55;3.30;99.90
9975;DHT22;5028;50.974;4.968;2022-11-20T03:18:23;3.30;99.90
9975;DHT22;5028;50.974;4.968;2022-11-20T03:20:58;3.40;99.90
9975;DHT22;5028;50.974;4.968;2022-11-20T03:23:29;3.50;99.90
9975;DHT22;5028;50.974;4.968;2022-11-20T03:26:10;3.50;99.90
9975;DHT22;5028;50.974;4.968;2022-11-20T03:28:39;3.50;99.90
9975;DHT22;5028;50.974;4.968;2022-11-20T03:31:15;3.50;99.90
9975;DHT22;5028;50.974;4.968;2022-11-20T03:33:44;3.50;99.90
9975;DHT22;5028;50.974;4.968;2022-11-20T03:36:20;3.50;99.90
9975;DHT22;5028;50.974;4.968;2022-11-20T03:38:49;3.40;99.90
9975;DHT22;5028;50.974;4.968;2022-11-20T03:41:27;3.50;99.90
9975;DHT22;5028;50.974;4.968;2022-11-20T03:43:57;3.50;99.90
9975;DHT22;5028;50.974;4.968;2022-11-20T03:46:33;3.50;99.90
9975;DHT22;5028;50.974;4.968;2022-11-20T03:49:02;3.40;99.90
9975;DHT22;5028;50.974;4.968;2022-11-20T03:51:37;3.50;99.90
9975;DHT22;5028;50.974;4.968;2022-11-20T03:54:07;3.50;99.90
9975;DHT22;5028;50.974;4.968;2022-11-20T03:56:44;3.40;99.90
9975;DHT22;5028;50.974;4.968;2022-11-20T03:59:12;3.50;99.90
9975;DHT22;5028;50.974;4.968;2022-11-20T04:02:00;3.40;99.90
9975;DHT22;5028;50.974;4.968;2022-11-20T04:04:29;3.40;99.90
9975;DHT22;5028;50.974;4.968;2022-11-20T04:07:04;3.50;99.90
9975;DHT22;5028;50.974;4.968;2022-11-20T04:09:32;3.40;99.90
9975;DHT22;5028;50.974;4.968;2022-11-20T04:12:08;3.40;99.90
9975;DHT22;5028;50.974;4.968;2022-11-20T04:14:36;3.40;99.90
9975;DHT22;5028;50.974;4.968;2022-11-20T04:17:12;3.40;99.90
9975;DHT22;5028;50.974;4.968;2022-11-20T04:19:40;3.40;99.90
9975;DHT22;5028;50.974;4.968;2022-11-20T04:22:15;3.40;99.90
9975;DHT22;5028;50.974;4.968;2022-11-20T04:24:43;3.40;99.90
9975;DHT22;5028;50.974;4.968;2022-11-20T04:27:20;3.40;99.90
9975;DHT22;5028;50.974;4.968;2022-11-20T04:29:48;3.50;99.90
9975;DHT22;5028;50.974;4.968;2022-11-20T04:32:23;3.50;99.90
9975;DHT22;5028;50.974;4.968;2022-11-20T04:34:52;3.60;99.90
9975;DHT22;5028;50.974;4.968;2022-11-20T04:37:27;3.50;99.90
9975;DHT22;5028;50.974;4.968;2022-11-20T04:39:55;3.50;99.90
9975;DHT22;5028;50.974;4.968;2022-11-20T04:42:31;3.60;99.90
9975;DHT22;5028;50.974;4.968;2022-11-20T04:45:00;3.60;99.90
9975;DHT22;5028;50.974;4.968;2022-11-20T04:47:35;3.60;99.90
9975;DHT22;5028;50.974;4.968;2022-11-20T04:50:03;3.60;99.90
9975;DHT22;5028;50.974;4.968;2022-11-20T04:52:39;3.60;99.90
9975;DHT22;5028;50.974;4.968;2022-11-20T04:55:07;3.60;99.90
9975;DHT22;5028;50.974;4.968;2022-11-20T04:57:44;3.60;99.90
9975;DHT22;5028;50.974;4.968;2022-11-20T05:00:25;3.70;99.90
9975;DHT22;5028;50.974;4.968;2022-11-20T05:03:00;3.70;99.90
9975;DHT22;5028;50.974;4.968;2022-11-20T05:05:28;3.60;99.90
9975;DHT22;5028;50.974;4.968;2022-11-20T05:08:03;3.60;99.90
9975;DHT22;5028;50.974;4.968;2022-11-20T05:10:32;3.60;99.90
9975;DHT22;5028;50.974;4.968;2022-11-20T05:13:08;3.50;99.90
9975;DHT22;5028;50.974;4.968;2022-11-20T05:15:37;3.50;99.90
9975;DHT22;5028;50.974;4.968;2022-11-20T05:18:12;3.60;99.90
9975;DHT22;5028;50.974;4.968;2022-11-20T05:20:40;3.60;99.90
9975;DHT22;5028;50.974;4.968;2022-11-20T05:23:15;3.60;99.90
9975;DHT22;5028;50.974;4.968;2022-11-20T05:25:43;3.60;99.90
9975;DHT22;5028;50.974;4.968;2022-11-20T05:28:26;3.60;99.90
9975;DHT22;5028;50.974;4.968;2022-11-20T05:30:55;3.60;99.90
9975;DHT22;5028;50.974;4.968;2022-11-20T05:33:30;3.70;99.90
9975;DHT22;5028;50.974;4.968;2022-11-20T05:35:58;3.70;99.90
9975;DHT22;5028;50.974;4.968;2022-11-20T05:38:33;3.60;99.90
9975;DHT22;5028;50.974;4.968;2022-11-20T05:41:05;3.60;99.90
9975;DHT22;5028;50.974;4.968;2022-11-20T05:43:44;3.60;99.90
9975;DHT22;5028;50.974;4.968;2022-11-20T05:46:15;3.60;99.90
9975;DHT22;5028;50.974;4.968;2022-11-20T05:48:55;3.60;99.90
9975;DHT22;5028;50.974;4.968;2022-11-20T05:51:24;3.60;99.90
9975;DHT22;5028;50.974;4.968;2022-11-20T05:53:59;3.60;99.90
9975;DHT22;5028;50.974;4.968;2022-11-20T05:56:27;3.60;99.90
9975;DHT22;5028;50.974;4.968;2022-11-20T05:59:03;3.60;99.90
9975;DHT22;5028;50.974;4.968;2022-11-20T06:01:45;3.60;99.90
9975;DHT22;5028;50.974;4.968;2022-11-20T06:04:14;3.60;99.90
9975;DHT22;5028;50.974;4.968;2022-11-20T06:06:48;3.60;99.90
9975;DHT22;5028;50.974;4.968;2022-11-20T06:09:16;3.60;99.90
9975;DHT22;5028;50.974;4.968;2022-11-20T06:11:51;3.70;99.90
9975;DHT22;5028;50.974;4.968;2022-11-20T06:14:20;3.70;99.90
9975;DHT22;5028;50.974;4.968;2022-11-20T06:16:56;3.70;99.90
9975;DHT22;5028;50.974;4.968;2022-11-20T06:19:24;3.70;99.90
9975;DHT22;5028;50.974;4.968;2022-11-20T06:21:59;3.70;99.90
9975;DHT22;5028;50.974;4.968;2022-11-20T06:24:27;3.70;99.90
9975;DHT22;5028;50.974;4.968;2022-11-20T06:27:02;3.80;99.90
9975;DHT22;5028;50.974;4.968;2022-11-20T06:29:31;3.80;99.90
9975;DHT22;5028;50.974;4.968;2022-11-20T06:32:06;3.90;99.90
9975;DHT22;5028;50.974;4.968;2022-11-20T06:34:34;3.90;99.90
9975;DHT22;5028;50.974;4.968;2022-11-20T06:37:09;4.00;99.90
9975;DHT22;5028;50.974;4.968;2022-11-20T06:39:39;4.00;99.90
9975;DHT22;5028;50.974;4.968;2022-11-20T06:42:14;4.00;99.90
9975;DHT22;5028;50.974;4.968;2022-11-20T06:44:44;4.00;99.90
9975;DHT22;5028;50.974;4.968;2022-11-20T06:47:19;3.90;99.90
9975;DHT22;5028;50.974;4.968;2022-11-20T06:49:47;3.90;99.90
9975;DHT22;5028;50.974;4.968;2022-11-20T06:52:22;3.80;99.90
9975;DHT22;5028;50.974;4.968;2022-11-20T06:54:50;3.70;99.90
9975;DHT22;5028;50.974;4.968;2022-11-20T06:57:25;3.70;99.90
9975;DHT22;5028;50.974;4.968;2022-11-20T07:00:01;3.60;99.90
9975;DHT22;5028;50.974;4.968;2022-11-20T07:02:36;3.60;99.90
9975;DHT22;5028;50.974;4.968;2022-11-20T07:05:11;3.60;99.90
9975;DHT22;5028;50.974;4.968;2022-11-20T07:07:46;3.60;99.90
9975;DHT22;5028;50.974;4.968;2022-11-20T07:10:14;3.60;99.90
9975;DHT22;5028;50.974;4.968;2022-11-20T07:12:49;3.60;99.90
9975;DHT22;5028;50.974;4.968;2022-11-20T07:15:22;3.60;99.90
9975;DHT22;5028;50.974;4.968;2022-11-20T07:17:58;3.60;99.90
9975;DHT22;5028;50.974;4.968;2022-11-20T07:20:27;3.60;99.90
9975;DHT22;5028;50.974;4.968;2022-11-20T07:23:02;3.60;99.90
9975;DHT22;5028;50.974;4.968;2022-11-20T07:25:30;3.60;99.90
9975;DHT22;5028;50.974;4.968;2022-11-20T07:28:06;3.60;99.90
9975;DHT22;5028;50.974;4.968;2022-11-20T07:30:36;3.60;99.90
9975;DHT22;5028;50.974;4.968;2022-11-20T07:33:11;3.60;99.90
9975;DHT22;5028;50.974;4.968;2022-11-20T07:35:39;3.60;99.90
9975;DHT22;5028;50.974;4.968;2022-11-20T07:38:14;3.70;99.90
9975;DHT22;5028;50.974;4.968;2022-11-20T07:40:42;3.70;99.90
9975;DHT22;5028;50.974;4.968;2022-11-20T07:43:17;3.80;99.90
9975;DHT22;5028;50.974;4.968;2022-11-20T07:45:47;3.80;99.90
9975;DHT22;5028;50.974;4.968;2022-11-20T07:48:21;3.90;99.90
9975;DHT22;5028;50.974;4.968;2022-11-20T07:50:52;3.90;99.90
9975;DHT22;5028;50.974;4.968;2022-11-20T07:53:27;3.90;99.90
9975;DHT22;5028;50.974;4.968;2022-11-20T07:55:59;3.90;99.90
9975;DHT22;5028;50.974;4.968;2022-11-20T07:58:41;4.00;99.90
9975;DHT22;5028;50.974;4.968;2022-11-20T08:01:23;4.00;99.90
9975;DHT22;5028;50.974;4.968;2022-11-20T08:03:58;4.00;99.90
9975;DHT22;5028;50.974;4.968;2022-11-20T08:06:26;4.00;99.90
9975;DHT22;5028;50.974;4.968;2022-11-20T08:09:01;4.10;99.90
9975;DHT22;5028;50.974;4.968;2022-11-20T08:11:29;4.10;99.90
9975;DHT22;5028;50.974;4.968;2022-11-20T08:14:21;4.10;99.90
9975;DHT22;5028;50.974;4.968;2022-11-20T08:16:51;4.10;99.90
9975;DHT22;5028;50.974;4.968;2022-11-20T08:19:26;4.10;99.90
9975;DHT22;5028;50.974;4.968;2022-11-20T08:21:55;4.20;99.90
9975;DHT22;5028;50.974;4.968;2022-11-20T08:24:30;4.20;99.90
9975;DHT22;5028;50.974;4.968;2022-11-20T08:26:58;4.20;99.90
9975;DHT22;5028;50.974;4.968;2022-11-20T08:29:33;4.30;99.90
9975;DHT22;5028;50.974;4.968;2022-11-20T08:32:04;4.30;99.90
9975;DHT22;5028;50.974;4.968;2022-11-20T08:34:40;4.40;99.90
9975;DHT22;5028;50.974;4.968;2022-11-20T08:37:09;4.40;99.90
9975;DHT22;5028;50.974;4.968;2022-11-20T08:39:44;4.40;99.90
9975;DHT22;5028;50.974;4.968;2022-11-20T08:42:14;4.50;99.90
9975;DHT22;5028;50.974;4.968;2022-11-20T08:44:49;4.60;99.90
9975;DHT22;5028;50.974;4.968;2022-11-20T08:47:19;4.60;99.90
9975;DHT22;5028;50.974;4.968;2022-11-20T08:49:54;4.60;99.90
9975;DHT22;5028;50.974;4.968;2022-11-20T08:52:22;4.60;99.90
9975;DHT22;5028;50.974;4.968;2022-11-20T08:55:00;4.70;99.90
9975;DHT22;5028;50.974;4.968;2022-11-20T08:57:31;4.70;99.90
9975;DHT22;5028;50.974;4.968;2022-11-20T09:00:14;4.80;99.90
9975;DHT22;5028;50.974;4.968;2022-11-20T09:02:44;4.80;99.90
9975;DHT22;5028;50.974;4.968;2022-11-20T09:05:19;4.80;99.90
9975;DHT22;5028;50.974;4.968;2022-11-20T09:07:47;4.80;99.90
9975;DHT22;5028;50.974;4.968;2022-11-20T09:10:22;4.90;99.90
9975;DHT22;5028;50.974;4.968;2022-11-20T09:12:51;4.90;99.90
9975;DHT22;5028;50.974;4.968;2022-11-20T09:15:26;5.00;99.90
9975;DHT22;5028;50.974;4.968;2022-11-20T09:17:57;5.00;99.90
9975;DHT22;5028;50.974;4.968;2022-11-20T09:20:32;5.00;99.90
9975;DHT22;5028;50.974;4.968;2022-11-20T09:23:00;5.10;99.90
9975;DHT22;5028;50.974;4.968;2022-11-20T09:25:35;5.20;99.90
9975;DHT22;5028;50.974;4.968;2022-11-20T09:28:03;5.20;99.90
9975;DHT22;5028;50.974;4.968;2022-11-20T09:30:38;5.10;99.90
9975;DHT22;5028;50.974;4.968;2022-11-20T09:33:08;5.20;99.90
9975;DHT22;5028;50.974;4.968;2022-11-20T09:35:43;5.10;99.90
9975;DHT22;5028;50.974;4.968;2022-11-20T09:38:11;5.20;99.90
9975;DHT22;5028;50.974;4.968;2022-11-20T09:40:54;5.30;99.90
9975;DHT22;5028;50.974;4.968;2022-11-20T09:43:30;5.30;99.90
9975;DHT22;5028;50.974;4.968;2022-11-20T09:46:13;5.30;99.90
9975;DHT22;5028;50.974;4.968;2022-11-20T09:48:52;5.40;99.90
9975;DHT22;5028;50.974;4.968;2022-11-20T09:51:37;5.40;99.90
9975;DHT22;5028;50.974;4.968;2022-11-20T09:54:17;5.40;99.90
9975;DHT22;5028;50.974;4.968;2022-11-20T09:57:11;5.50;99.90
9975;DHT22;5028;50.974;4.968;2022-11-20T09:59:42;5.50;99.90
9975;DHT22;5028;50.974;4.968;2022-11-20T10:02:28;5.60;99.90
9975;DHT22;5028;50.974;4.968;2022-11-20T10:05:04;5.60;99.90
9975;DHT22;5028;50.974;4.968;2022-11-20T10:07:42;5.60;99.90
9975;DHT22;5028;50.974;4.968;2022-11-20T10:10:16;5.70;99.90
9975;DHT22;5028;50.974;4.968;2022-11-20T10:13:02;5.70;99.90
9975;DHT22;5028;50.974;4.968;2022-11-20T10:15:43;5.70;99.90
9975;DHT22;5028;50.974;4.968;2022-11-20T10:18:27;5.70;99.90
9975;DHT22;5028;50.974;4.968;2022-11-20T10:21:05;5.80;99.90
9975;DHT22;5028;50.974;4.968;2022-11-20T10:23:52;5.90;99.90
9975;DHT22;5028;50.974;4.968;2022-11-20T10:26:32;5.90;99.90
9975;DHT22;5028;50.974;4.968;2022-11-20T10:29:13;6.00;99.90
9975;DHT22;5028;50.974;4.968;2022-11-20T10:31:45;6.10;99.90
9975;DHT22;5028;50.974;4.968;2022-11-20T10:34:23;6.10;99.90
9975;DHT22;5028;50.974;4.968;2022-11-20T10:36:59;6.10;99.90
9975;DHT22;5028;50.974;4.968;2022-11-20T10:39:41;6.10;99.90
9975;DHT22;5028;50.974;4.968;2022-11-20T10:42:13;6.20;99.90
9975;DHT22;5028;50.974;4.968;2022-11-20T10:44:57;6.20;99.90
9975;DHT22;5028;50.974;4.968;2022-11-20T10:47:32;6.30;99.90
9975;DHT22;5028;50.974;4.968;2022-11-20T10:50:11;6.30;99.90
9975;DHT22;5028;50.974;4.968;2022-11-20T10:52:56;6.40;99.90
9975;DHT22;5028;50.974;4.968;2022-11-20T10:55:39;6.50;99.90
9975;DHT22;5028;50.974;4.968;2022-11-20T10:58:13;6.50;99.90
9975;DHT22;5028;50.974;4.968;2022-11-20T11:01:03;6.60;99.90
9975;DHT22;5028;50.974;4.968;2022-11-20T11:03:32;6.60;99.90
9975;DHT22;5028;50.974;4.968;2022-11-20T11:06:10;6.60;99.90
9975;DHT22;5028;50.974;4.968;2022-11-20T11:08:43;6.70;99.90
9975;DHT22;5028;50.974;4.968;2022-11-20T11:11:21;6.70;99.90
9975;DHT22;5028;50.974;4.968;2022-11-20T11:13:50;6.80;99.90
9975;DHT22;5028;50.974;4.968;2022-11-20T11:16:26;6.80;99.90
9975;DHT22;5028;50.974;4.968;2022-11-20T11:19:04;6.90;99.90
9975;DHT22;5028;50.974;4.968;2022-11-20T11:21:38;6.90;99.90
9975;DHT22;5028;50.974;4.968;2022-11-20T11:24:23;7.00;99.90
9975;DHT22;5028;50.974;4.968;2022-11-20T11:27:14;7.00;99.90
9975;DHT22;5028;50.974;4.968;2022-11-20T11:29:45;7.10;99.90
9975;DHT22;5028;50.974;4.968;2022-11-20T11:32:21;7.10;99.90
9975;DHT22;5028;50.974;4.968;2022-11-20T11:34:59;7.20;99.90
9975;DHT22;5028;50.974;4.968;2022-11-20T11:37:36;7.20;99.90
9975;DHT22;5028;50.974;4.968;2022-11-20T11:40:11;7.30;99.90
9975;DHT22;5028;50.974;4.968;2022-11-20T11:42:54;7.40;99.90
9975;DHT22;5028;50.974;4.968;2022-11-20T11:45:24;7.50;99.90
9975;DHT22;5028;50.974;4.968;2022-11-20T11:48:03;7.60;99.90
9975;DHT22;5028;50.974;4.968;2022-11-20T11:50:35;7.70;99.90
9975;DHT22;5028;50.974;4.968;2022-11-20T11:53:14;7.80;99.90
9975;DHT22;5028;50.974;4.968;2022-11-20T11:55:49;7.80;99.90
9975;DHT22;5028;50.974;4.968;2022-11-20T11:58:41;7.90;99.90
9975;DHT22;5028;50.974;4.968;2022-11-20T12:01:29;7.90;99.90
9975;DHT22;5028;50.974;4.968;2022-11-20T12:04:16;8.00;99.90
9975;DHT22;5028;50.974;4.968;2022-11-20T12:06:48;8.00;99.90
9975;DHT22;5028;50.974;4.968;2022-11-20T12:09:48;8.10;99.90
9975;DHT22;5028;50.974;4.968;2022-11-20T12:12:31;8.10;99.90
9975;DHT22;5028;50.974;4.968;2022-11-20T12:15:02;8.20;99.90
9975;DHT22;5028;50.974;4.968;2022-11-20T12:17:38;8.30;99.90
9975;DHT22;5028;50.974;4.968;2022-11-20T12:20:14;8.40;99.90
9975;DHT22;5028;50.974;4.968;2022-11-20T12:22:48;8.50;99.90
9975;DHT22;5028;50.974;4.968;2022-11-20T12:25:28;8.60;99.90
9975;DHT22;5028;50.974;4.968;2022-11-20T12:28:32;8.70;99.90
9975;DHT22;5028;50.974;4.968;2022-11-20T12:31:35;8.80;99.90
9975;DHT22;5028;50.974;4.968;2022-11-20T12:34:24;8.80;99.90
9975;DHT22;5028;50.974;4.968;2022-11-20T12:37:04;8.90;99.90
9975;DHT22;5028;50.974;4.968;2022-11-20T12:39:42;8.90;99.90
9975;DHT22;5028;50.974;4.968;2022-11-20T12:42:36;8.90;99.90
9975;DHT22;5028;50.974;4.968;2022-11-20T12:45:56;9.00;99.90
9975;DHT22;5028;50.974;4.968;2022-11-20T12:51:52;8.80;99.90
9975;DHT22;5028;50.974;4.968;2022-11-20T12:54:35;8.80;99.90
9975;DHT22;5028;50.974;4.968;2022-11-20T12:57:20;8.60;99.90
9975;DHT22;5028;50.974;4.968;2022-11-20T13:00:06;8.60;99.90
9975;DHT22;5028;50.974;4.968;2022-11-20T13:06:01;8.40;99.90
9975;DHT22;5028;50.974;4.968;2022-11-20T13:08:41;8.30;99.90
9975;DHT22;5028;50.974;4.968;2022-11-20T13:11:16;8.20;99.90
9975;DHT22;5028;50.974;4.968;2022-11-20T13:14:05;8.10;99.90
9975;DHT22;5028;50.974;4.968;2022-11-20T13:16:40;8.10;99.90
9975;DHT22;5028;50.974;4.968;2022-11-20T13:19:18;8.00;99.90
9975;DHT22;5028;50.974;4.968;2022-11-20T13:21:49;7.90;99.90
9975;DHT22;5028;50.974;4.968;2022-11-20T13:24:26;7.80;99.90
9975;DHT22;5028;50.974;4.968;2022-11-20T13:27:05;7.70;99.90
9975;DHT22;5028;50.974;4.968;2022-11-20T13:29:44;7.70;99.90
9975;DHT22;5028;50.974;4.968;2022-11-20T13:32:15;7.70;99.90
9975;DHT22;5028;50.974;4.968;2022-11-20T13:34:53;7.60;99.90
9975;DHT22;5028;50.974;4.968;2022-11-20T13:37:29;7.60;99.90
9975;DHT22;5028;50.974;4.968;2022-11-20T13:40:22;7.60;99.90
9975;DHT22;5028;50.974;4.968;2022-11-20T13:43:07;7.60;99.90
9975;DHT22;5028;50.974;4.968;2022-11-20T13:45:42;7.70;99.90
9975;DHT22;5028;50.974;4.968;2022-11-20T13:48:23;7.60;99.90
9975;DHT22;5028;50.974;4.968;2022-11-20T13:51:11;7.60;99.90
9975;DHT22;5028;50.974;4.968;2022-11-20T13:53:57;7.70;99.90
9975;DHT22;5028;50.974;4.968;2022-11-20T13:56:47;7.70;99.90
9975;DHT22;5028;50.974;4.968;2022-11-20T13:59:33;7.70;99.90
9975;DHT22;5028;50.974;4.968;2022-11-20T14:02:11;7.70;99.90
9975;DHT22;5028;50.974;4.968;2022-11-20T14:04:48;7.70;99.90
9975;DHT22;5028;50.974;4.968;2022-11-20T14:07:26;7.70;99.90
9975;DHT22;5028;50.974;4.968;2022-11-20T14:09:57;7.70;99.90
9975;DHT22;5028;50.974;4.968;2022-11-20T14:12:33;7.70;99.90
9975;DHT22;5028;50.974;4.968;2022-11-20T14:15:04;7.70;99.90
9975;DHT22;5028;50.974;4.968;2022-11-20T14:17:38;7.60;99.90
9975;DHT22;5028;50.974;4.968;2022-11-20T14:20:12;7.60;99.90
9975;DHT22;5028;50.974;4.968;2022-11-20T14:22:49;7.60;99.90
9975;DHT22;5028;50.974;4.968;2022-11-20T14:25:23;7.60;99.90
9975;DHT22;5028;50.974;4.968;2022-11-20T14:28:01;7.60;99.90
9975;DHT22;5028;50.974;4.968;2022-11-20T14:30:38;7.60;99.90
9975;DHT22;5028;50.974;4.968;2022-11-20T14:33:14;7.50;99.90
9975;DHT22;5028;50.974;4.968;2022-11-20T14:35:46;7.60;99.90
9975;DHT22;5028;50.974;4.968;2022-11-20T14:38:23;7.60;99.90
9975;DHT22;5028;50.974;4.968;2022-11-20T14:41:05;7.50;99.90
9975;DHT22;5028;50.974;4.968;2022-11-20T14:43:45;7.60;99.90
9975;DHT22;5028;50.974;4.968;2022-11-20T14:46:14;7.50;99.90
9975;DHT22;5028;50.974;4.968;2022-11-20T14:48:51;7.60;99.90
9975;DHT22;5028;50.974;4.968;2022-11-20T14:51:31;7.50;99.90
9975;DHT22;5028;50.974;4.968;2022-11-20T14:54:10;7.50;99.90
9975;DHT22;5028;50.974;4.968;2022-11-20T14:56:39;7.50;99.90
9975;DHT22;5028;50.974;4.968;2022-11-20T14:59:23;7.50;99.90
9975;DHT22;5028;50.974;4.968;2022-11-20T15:02:07;7.50;99.90
9975;DHT22;5028;50.974;4.968;2022-11-20T15:04:46;7.50;99.90
9975;DHT22;5028;50.974;4.968;2022-11-20T15:07:24;7.50;99.90
9975;DHT22;5028;50.974;4.968;2022-11-20T15:10:01;7.50;99.90
9975;DHT22;5028;50.974;4.968;2022-11-20T15:12:32;7.50;99.90
9975;DHT22;5028;50.974;4.968;2022-11-20T15:15:11;7.50;99.90
9975;DHT22;5028;50.974;4.968;2022-11-20T15:17:41;7.50;99.90
9975;DHT22;5028;50.974;4.968;2022-11-20T15:20:16;7.60;99.90
9975;DHT22;5028;50.974;4.968;2022-11-20T15:22:45;7.60;99.90
9975;DHT22;5028;50.974;4.968;2022-11-20T15:25:20;7.60;99.90
9975;DHT22;5028;50.974;4.968;2022-11-20T15:27:55;7.60;99.90
9975;DHT22;5028;50.974;4.968;2022-11-20T15:30:30;7.60;99.90
9975;DHT22;5028;50.974;4.968;2022-11-20T15:32:59;7.60;99.90
9975;DHT22;5028;50.974;4.968;2022-11-20T15:35:33;7.60;99.90
9975;DHT22;5028;50.974;4.968;2022-11-20T15:38:03;7.60;99.90
9975;DHT22;5028;50.974;4.968;2022-11-20T15:40:39;7.60;99.90
9975;DHT22;5028;50.974;4.968;2022-11-20T15:43:09;7.60;99.90
9975;DHT22;5028;50.974;4.968;2022-11-20T15:45:46;7.60;99.90
9975;DHT22;5028;50.974;4.968;2022-11-20T15:48:18;7.60;99.90
9975;DHT22;5028;50.974;4.968;2022-11-20T15:50:57;7.60;99.90
9975;DHT22;5028;50.974;4.968;2022-11-20T15:53:26;7.60;99.90
9975;DHT22;5028;50.974;4.968;2022-11-20T15:56:02;7.60;99.90
9975;DHT22;5028;50.974;4.968;2022-11-20T15:58:32;7.60;99.90
9975;DHT22;5028;50.974;4.968;2022-11-20T16:01:16;7.70;99.90
9975;DHT22;5028;50.974;4.968;2022-11-20T16:03:59;7.70;99.90
9975;DHT22;5028;50.974;4.968;2022-11-20T16:06:34;7.70;99.90
9975;DHT22;5028;50.974;4.968;2022-11-20T16:09:03;7.70;99.90
9975;DHT22;5028;50.974;4.968;2022-11-20T16:11:38;7.70;99.90
9975;DHT22;5028;50.974;4.968;2022-11-20T16:14:10;7.70;99.90
9975;DHT22;5028;50.974;4.968;2022-11-20T16:17:03;7.70;99.90
9975;DHT22;5028;50.974;4.968;2022-11-20T16:19:31;7.80;99.90
9975;DHT22;5028;50.974;4.968;2022-11-20T16:22:06;7.80;99.90
9975;DHT22;5028;50.974;4.968;2022-11-20T16:24:34;7.90;99.90
9975;DHT22;5028;50.974;4.968;2022-11-20T16:27:09;7.90;99.90
9975;DHT22;5028;50.974;4.968;2022-11-20T16:29:39;7.90;99.90
9975;DHT22;5028;50.974;4.968;2022-11-20T16:32:14;7.90;99.90
9975;DHT22;5028;50.974;4.968;2022-11-20T16:34:43;7.80;99.90
9975;DHT22;5028;50.974;4.968;2022-11-20T16:37:17;7.80;99.90
9975;DHT22;5028;50.974;4.968;2022-11-20T16:39:46;7.80;99.90
9975;DHT22;5028;50.974;4.968;2022-11-20T16:42:20;7.90;99.90
9975;DHT22;5028;50.974;4.968;2022-11-20T16:44:50;7.90;99.90
9975;DHT22;5028;50.974;4.968;2022-11-20T16:47:26;7.90;99.90
9975;DHT22;5028;50.974;4.968;2022-11-20T16:49:54;7.90;99.90
9975;DHT22;5028;50.974;4.968;2022-11-20T16:52:30;7.90;99.90
9975;DHT22;5028;50.974;4.968;2022-11-20T16:54:58;7.90;99.90
9975;DHT22;5028;50.974;4.968;2022-11-20T16:57:34;7.90;99.90
9975;DHT22;5028;50.974;4.968;2022-11-20T17:00:07;7.90;99.90
9975;DHT22;5028;50.974;4.968;2022-11-20T17:02:42;7.80;99.90
9975;DHT22;5028;50.974;4.968;2022-11-20T17:05:11;7.80;99.90
9975;DHT22;5028;50.974;4.968;2022-11-20T17:07:45;7.80;99.90
9975;DHT22;5028;50.974;4.968;2022-11-20T17:10:14;7.80;99.90
9975;DHT22;5028;50.974;4.968;2022-11-20T17:12:49;7.80;99.90
9975;DHT22;5028;50.974;4.968;2022-11-20T17:15:20;7.80;99.90